Time;durP1;ratioP1;P1;durP2;ratioP2;P2;SDS_P1;SDS_P2;PMS_P1;PMS_P2;Temp;Humidity;BMP_temperature;BMP_pressure;BME280_temperature;BME280_humidity;BME280_pressure;Samples;Min_cycle;Max_cycle;Signal;HPM_P1;HPM_P2
2022/01/05 00:00:56;;;;;;;1.47;1.37;;;9.10;99.90;;;;;;5004330;28;20491;-50
2022/01/05 00:03:25;;;;;;;2.80;1.50;;;9.10;99.90;;;;;;5004511;28;20449;-48
2022/01/05 00:05:54;;;;;;;1.23;1.07;;;9.10;99.90;;;;;;5003651;28;20496;-50
2022/01/05 00:08:25;;;;;;;1.60;1.40;;;9.10;99.90;;;;;;5004717;28;20486;-50
2022/01/05 00:10:53;;;;;;;2.43;1.40;;;9.10;99.90;;;;;;5004240;28;20480;-48
2022/01/05 00:13:22;;;;;;;1.67;1.57;;;9.10;99.90;;;;;;5004687;28;20436;-49
2022/01/05 00:15:50;;;;;;;1.67;1.50;;;9.10;99.90;;;;;;5002024;28;20484;-49
2022/01/05 00:18:18;;;;;;;1.37;1.20;;;9.10;99.90;;;;;;5027896;28;20934;-47
2022/01/05 00:20:46;;;;;;;1.50;1.40;;;9.10;99.90;;;;;;5023942;28;20894;-48
2022/01/05 00:23:15;;;;;;;2.27;1.30;;;9.10;99.90;;;;;;5010215;28;20464;-48
2022/01/05 00:25:45;;;;;;;2.00;1.30;;;9.10;99.90;;;;;;5016783;28;20559;-48
2022/01/05 00:28:13;;;;;;;1.13;1.03;;;9.00;99.90;;;;;;5024303;28;20455;-50
2022/01/05 00:30:42;;;;;;;3.17;1.30;;;9.10;99.90;;;;;;5023626;28;20513;-50
2022/01/05 00:33:10;;;;;;;1.30;1.20;;;9.10;99.90;;;;;;5003775;28;20440;-50
2022/01/05 00:35:38;;;;;;;1.87;1.30;;;9.00;99.90;;;;;;5004061;28;20810;-49
2022/01/05 00:38:06;;;;;;;1.87;1.50;;;9.00;99.90;;;;;;5014851;28;20456;-49
2022/01/05 00:40:36;;;;;;;1.30;1.20;;;9.00;99.90;;;;;;5013904;28;20861;-51
2022/01/05 00:43:06;;;;;;;1.53;1.43;;;9.00;99.90;;;;;;5004819;28;20421;-49
2022/01/05 00:45:34;;;;;;;1.40;1.20;;;9.00;99.90;;;;;;5004222;28;20538;-48
2022/01/05 00:48:02;;;;;;;2.17;1.40;;;9.00;99.90;;;;;;5005940;28;20449;-50
2022/01/05 00:50:31;;;;;;;1.63;1.53;;;9.00;99.90;;;;;;5017613;28;20531;-50
2022/01/05 00:53:00;;;;;;;1.27;1.17;;;9.00;99.90;;;;;;5004481;28;20448;-51
2022/01/05 00:55:29;;;;;;;2.50;1.30;;;9.00;99.90;;;;;;5003974;28;20475;-50
2022/01/05 00:57:57;;;;;;;1.97;1.50;;;9.00;99.90;;;;;;5003790;28;20502;-50
2022/01/05 01:00:27;;;;;;;2.00;1.70;;;9.00;99.90;;;;;;5003885;28;20479;-50
2022/01/05 01:02:55;;;;;;;1.80;1.70;;;9.00;99.90;;;;;;5004286;28;20432;-50
2022/01/05 01:05:23;;;;;;;1.50;1.40;;;9.00;99.90;;;;;;5016015;28;20782;-48
2022/01/05 01:07:51;;;;;;;1.30;1.20;;;9.00;99.90;;;;;;5007061;28;20805;-49
2022/01/05 01:10:19;;;;;;;5.57;1.70;;;9.00;99.90;;;;;;5003563;28;20473;-47
2022/01/05 01:12:47;;;;;;;1.77;1.67;;;9.00;99.90;;;;;;5004194;28;20441;-50
2022/01/05 01:15:15;;;;;;;1.40;1.30;;;9.00;99.90;;;;;;5003341;28;20963;-49
2022/01/05 01:17:45;;;;;;;1.70;1.53;;;9.00;99.90;;;;;;5020012;28;20529;-50
2022/01/05 01:20:13;;;;;;;1.77;1.37;;;9.00;99.90;;;;;;5007256;28;20471;-52
2022/01/05 01:22:41;;;;;;;1.20;1.10;;;9.00;99.90;;;;;;5023981;28;20443;-48
2022/01/05 01:25:10;;;;;;;2.50;1.63;;;9.00;99.90;;;;;;5021745;28;20463;-49
2022/01/05 01:27:40;;;;;;;1.43;1.27;;;9.00;99.90;;;;;;5026507;28;21072;-48
2022/01/05 01:30:10;;;;;;;1.80;1.10;;;9.00;99.90;;;;;;5023525;28;20474;-49
2022/01/05 01:32:38;;;;;;;2.37;1.83;;;9.00;99.90;;;;;;5008327;28;20437;-49
2022/01/05 01:35:08;;;;;;;1.43;1.20;;;9.00;99.90;;;;;;5006887;28;20580;-49
2022/01/05 01:37:36;;;;;;;4.30;1.60;;;9.00;99.90;;;;;;5022793;28;20980;-49
2022/01/05 01:40:07;;;;;;;1.93;1.50;;;9.00;99.90;;;;;;5026389;28;20836;-49
2022/01/05 01:42:35;;;;;;;1.70;1.60;;;9.00;99.90;;;;;;5012384;28;20807;-50
2022/01/05 01:45:05;;;;;;;1.40;1.30;;;9.00;99.90;;;;;;5006000;28;20447;-49
2022/01/05 01:47:33;;;;;;;1.80;1.13;;;9.00;99.90;;;;;;5007277;28;21041;-50
2022/01/05 01:50:01;;;;;;;1.63;1.53;;;9.00;99.90;;;;;;5008121;28;20444;-52
2022/01/05 01:52:30;;;;;;;1.47;1.33;;;8.90;99.90;;;;;;5012984;28;20512;-50
2022/01/05 01:54:58;;;;;;;2.20;1.37;;;8.90;99.90;;;;;;5026576;28;20736;-47
2022/01/05 01:57:28;;;;;;;2.63;1.60;;;8.90;99.90;;;;;;5027329;28;20458;-48
2022/01/05 01:59:58;;;;;;;1.43;1.33;;;8.90;99.90;;;;;;5009245;28;20444;-50
2022/01/05 02:02:26;;;;;;;1.60;1.50;;;8.90;99.90;;;;;;5007398;28;20782;-50
2022/01/05 02:04:54;;;;;;;1.90;1.10;;;8.90;99.90;;;;;;5006148;28;20448;-49
2022/01/05 02:07:22;;;;;;;2.13;1.60;;;8.90;99.90;;;;;;5006970;28;20871;-50
2022/01/05 02:09:52;;;;;;;3.60;1.43;;;8.90;99.90;;;;;;5006261;28;20804;-51
2022/01/05 02:12:22;;;;;;;1.90;1.30;;;8.90;99.90;;;;;;5006881;28;20503;-49
2022/01/05 02:14:50;;;;;;;2.30;1.30;;;8.90;99.90;;;;;;5006180;28;20944;-50
2022/01/05 02:17:21;;;;;;;2.37;1.57;;;8.90;99.90;;;;;;5026234;28;20470;-49
2022/01/05 02:19:49;;;;;;;2.17;1.40;;;8.90;99.90;;;;;;5008514;28;21013;-50
2022/01/05 02:22:18;;;;;;;2.93;1.43;;;8.90;99.90;;;;;;5025487;28;20460;-50
2022/01/05 02:24:47;;;;;;;1.67;1.57;;;8.90;99.90;;;;;;5008476;28;20487;-48
2022/01/05 02:27:19;;;;;;;1.60;1.50;;;8.90;99.90;;;;;;5004649;28;20473;-48
2022/01/05 02:29:47;;;;;;;3.20;2.07;;;8.90;99.90;;;;;;5013233;28;20813;-49
2022/01/05 02:32:15;;;;;;;2.10;1.80;;;8.90;99.90;;;;;;5026448;28;20521;-49
2022/01/05 02:34:45;;;;;;;2.93;1.77;;;8.90;99.90;;;;;;5016884;28;21004;-47
2022/01/05 02:37:13;;;;;;;1.90;1.73;;;8.90;99.90;;;;;;4988214;28;20469;-49
2022/01/05 02:39:43;;;;;;;1.97;1.50;;;8.90;99.90;;;;;;5006641;28;20536;-50
2022/01/05 02:42:25;;;;;;;3.90;1.90;;;8.90;99.90;;;;;;5005679;28;20829;-49
2022/01/05 02:44:53;;;;;;;2.37;2.17;;;8.90;99.90;;;;;;5006206;28;20518;-49
2022/01/05 02:47:24;;;;;;;1.80;1.43;;;8.80;99.90;;;;;;5005670;28;20998;-50
2022/01/05 02:49:57;;;;;;;2.30;2.00;;;8.80;99.90;;;;;;5006131;28;20444;-50
2022/01/05 02:52:25;;;;;;;2.50;1.80;;;8.80;99.90;;;;;;5018852;28;20431;-49
2022/01/05 02:54:54;;;;;;;2.30;2.00;;;8.80;99.90;;;;;;5025158;28;20444;-49
2022/01/05 02:57:22;;;;;;;2.37;2.17;;;8.80;99.90;;;;;;5022000;28;20452;-50
2022/01/05 02:59:50;;;;;;;3.90;1.63;;;8.80;99.90;;;;;;5005242;28;20433;-49
2022/01/05 03:02:18;;;;;;;2.40;2.00;;;8.80;99.90;;;;;;5012841;28;20459;-51
2022/01/05 03:04:47;;;;;;;2.03;1.30;;;8.80;99.90;;;;;;5037135;28;20611;-50
2022/01/05 03:07:16;;;;;;;1.77;1.53;;;8.80;99.90;;;;;;5045700;28;20502;-49
2022/01/05 03:09:44;;;;;;;2.90;1.70;;;8.80;99.90;;;;;;5045076;28;20427;-50
2022/01/05 03:12:13;;;;;;;1.67;1.57;;;8.80;99.90;;;;;;5044829;28;20532;-50
2022/01/05 03:14:42;;;;;;;2.50;1.83;;;8.80;99.90;;;;;;5044965;28;20802;-49
2022/01/05 03:17:10;;;;;;;4.00;2.40;;;8.80;99.90;;;;;;5029220;28;20512;-49
2022/01/05 03:19:38;;;;;;;4.53;2.60;;;8.80;99.90;;;;;;5039150;28;20494;-48
2022/01/05 03:22:06;;;;;;;2.43;2.10;;;8.80;99.90;;;;;;5043997;28;20501;-49
2022/01/05 03:24:34;;;;;;;1.70;1.60;;;8.80;99.90;;;;;;5027697;28;20469;-49
2022/01/05 03:27:02;;;;;;;3.53;2.23;;;8.80;99.90;;;;;;5035088;28;20475;-48
2022/01/05 03:29:32;;;;;;;1.93;1.67;;;8.80;99.90;;;;;;5025146;28;20461;-47
2022/01/05 03:32:01;;;;;;;3.57;2.40;;;8.80;99.90;;;;;;5024900;28;20491;-51
2022/01/05 03:34:31;;;;;;;3.00;2.07;;;8.80;99.90;;;;;;5040058;28;20440;-47
2022/01/05 03:37:00;;;;;;;3.93;1.73;;;8.80;99.90;;;;;;5025012;28;20467;-49
2022/01/05 03:39:28;;;;;;;4.43;1.90;;;8.80;99.90;;;;;;5024935;28;20464;-50
2022/01/05 03:41:56;;;;;;;1.87;1.77;;;8.80;99.90;;;;;;5026345;28;20507;-50
2022/01/05 03:44:24;;;;;;;3.10;2.00;;;8.80;99.90;;;;;;5041456;28;20443;-48
2022/01/05 03:46:53;;;;;;;2.30;1.57;;;8.80;99.90;;;;;;5024769;28;20937;-50
2022/01/05 03:49:21;;;;;;;6.90;2.00;;;8.80;99.90;;;;;;5043327;28;20455;-47
2022/01/05 03:51:49;;;;;;;2.23;1.70;;;8.80;99.90;;;;;;5043653;28;20467;-49
2022/01/05 03:54:18;;;;;;;2.90;2.00;;;8.80;99.90;;;;;;5023547;28;20432;-50
2022/01/05 03:56:46;;;;;;;2.33;1.50;;;8.80;99.90;;;;;;5032645;28;20512;-50
2022/01/05 03:59:14;;;;;;;2.15;1.95;;;8.80;99.90;;;;;;5044834;28;20447;-48
2022/01/05 04:01:42;;;;;;;2.50;1.83;;;8.80;99.90;;;;;;5045115;28;20585;-52
2022/01/05 04:04:12;;;;;;;2.00;1.80;;;8.70;99.90;;;;;;5033167;28;20538;-50
2022/01/05 04:06:40;;;;;;;3.40;1.37;;;8.80;99.90;;;;;;5031224;28;20477;-49
2022/01/05 04:09:10;;;;;;;2.40;2.07;;;8.70;99.90;;;;;;5043139;28;20459;-49
2022/01/05 04:11:38;;;;;;;2.67;1.33;;;8.70;99.90;;;;;;5031140;28;20470;-49
2022/01/05 04:14:06;;;;;;;2.30;1.80;;;8.70;99.90;;;;;;5033955;28;20915;-51
2022/01/05 04:16:35;;;;;;;2.67;1.70;;;8.80;99.90;;;;;;5023611;28;20490;-49
2022/01/05 04:19:03;;;;;;;2.73;1.90;;;8.70;99.90;;;;;;5024704;28;20453;-48
2022/01/05 04:21:33;;;;;;;3.50;1.90;;;8.70;99.90;;;;;;5024798;28;20475;-50
2022/01/05 04:24:02;;;;;;;2.47;1.87;;;8.70;99.90;;;;;;5023487;28;20440;-49
2022/01/05 04:26:30;;;;;;;2.80;1.70;;;8.70;99.90;;;;;;5025043;28;20475;-49
2022/01/05 04:28:58;;;;;;;2.77;1.97;;;8.70;99.90;;;;;;5024922;28;20906;-50
2022/01/05 04:31:26;;;;;;;4.40;1.40;;;8.70;99.90;;;;;;5025032;28;20530;-48
2022/01/05 04:33:54;;;;;;;2.20;1.63;;;8.70;99.90;;;;;;5034043;28;20439;-50
2022/01/05 04:36:43;;;;;;;3.20;1.60;;;8.70;99.90;;;;;;5044497;28;20550;-49
2022/01/05 04:39:11;;;;;;;2.27;1.90;;;8.70;99.90;;;;;;5040610;28;20457;-49
2022/01/05 04:41:39;;;;;;;2.30;1.63;;;8.70;99.90;;;;;;5024722;28;21058;-50
2022/01/05 04:44:08;;;;;;;2.30;1.50;;;8.70;99.90;;;;;;5039256;28;20934;-50
2022/01/05 04:46:36;;;;;;;2.30;1.40;;;8.70;99.90;;;;;;5025262;28;20476;-51
2022/01/05 04:49:05;;;;;;;1.83;1.30;;;8.70;99.90;;;;;;5023572;28;20474;-50
2022/01/05 04:51:33;;;;;;;5.07;1.53;;;8.70;99.90;;;;;;5023702;28;20471;-49
2022/01/05 04:54:02;;;;;;;2.43;1.83;;;8.60;99.90;;;;;;5025239;28;20445;-49
2022/01/05 04:56:30;;;;;;;3.50;1.70;;;8.60;99.90;;;;;;5042586;28;20725;-50
2022/01/05 04:58:59;;;;;;;2.23;1.33;;;8.60;99.90;;;;;;5043583;28;21260;-50
2022/01/05 05:01:27;;;;;;;3.33;1.60;;;8.70;99.90;;;;;;5045795;28;20462;-50
2022/01/05 05:03:55;;;;;;;2.13;1.53;;;8.60;99.90;;;;;;5047108;28;20537;-49
2022/01/05 05:06:24;;;;;;;2.07;1.57;;;8.60;99.90;;;;;;5047040;28;20470;-48
2022/01/05 05:08:52;;;;;;;2.40;1.60;;;8.60;99.90;;;;;;5047479;28;20528;-51
2022/01/05 05:11:21;;;;;;;2.93;1.57;;;8.60;99.90;;;;;;5047237;28;20528;-48
2022/01/05 05:13:49;;;;;;;2.50;2.00;;;8.60;99.90;;;;;;5047376;28;20449;-50
2022/01/05 05:16:17;;;;;;;3.67;2.10;;;8.60;99.90;;;;;;5029554;28;20500;-51
2022/01/05 05:18:45;;;;;;;3.70;1.67;;;8.60;99.90;;;;;;5047730;28;20455;-50
2022/01/05 05:21:13;;;;;;;1.33;1.17;;;8.60;99.90;;;;;;5047177;28;20828;-50
2022/01/05 05:23:41;;;;;;;2.67;1.63;;;8.60;99.90;;;;;;5047663;28;20450;-50
2022/01/05 05:26:10;;;;;;;1.50;1.37;;;8.60;99.90;;;;;;5046380;28;20464;-49
2022/01/05 05:28:39;;;;;;;2.37;1.67;;;8.60;99.90;;;;;;5047948;28;20496;-50
2022/01/05 05:31:07;;;;;;;1.40;1.30;;;8.60;99.90;;;;;;5046627;28;20478;-50
2022/01/05 05:33:36;;;;;;;3.07;1.73;;;8.60;99.90;;;;;;5047742;28;20452;-50
2022/01/05 05:36:04;;;;;;;3.70;1.70;;;8.60;99.90;;;;;;5046276;28;20489;-50
2022/01/05 05:38:33;;;;;;;2.43;1.97;;;8.60;99.90;;;;;;5047512;28;20542;-51
2022/01/05 05:41:01;;;;;;;1.40;1.30;;;8.60;99.90;;;;;;5045822;28;20887;-51
2022/01/05 05:43:30;;;;;;;2.27;1.73;;;8.60;99.90;;;;;;5047399;28;20446;-49
2022/01/05 05:46:00;;;;;;;2.70;1.40;;;8.60;99.90;;;;;;5045476;28;20462;-48
2022/01/05 05:48:31;;;;;;;2.92;1.45;;;8.50;99.90;;;;;;5046593;28;20539;-51
2022/01/05 05:50:59;;;;;;;3.60;1.77;;;8.50;99.90;;;;;;5046810;28;20228;-49
2022/01/05 05:53:27;;;;;;;2.00;1.83;;;8.50;99.90;;;;;;5046234;28;20925;-50
2022/01/05 05:55:56;;;;;;;3.93;1.77;;;8.50;99.90;;;;;;5045525;28;20954;-51
2022/01/05 05:58:24;;;;;;;3.75;1.40;;;8.50;99.90;;;;;;5046735;28;20461;-50
2022/01/05 06:00:55;;;;;;;2.00;1.57;;;8.50;99.90;;;;;;5046019;28;20235;-48
2022/01/05 06:03:28;;;;;;;3.60;1.33;;;8.50;99.90;;;;;;5046557;28;20437;-50
2022/01/05 06:05:56;;;;;;;2.30;1.87;;;8.50;99.90;;;;;;5046154;28;20551;-50
2022/01/05 06:08:24;;;;;;;3.97;2.13;;;8.50;99.90;;;;;;5046448;28;21047;-49
2022/01/05 06:10:52;;;;;;;3.17;1.65;;;8.50;99.90;;;;;;5045722;28;20457;-50
2022/01/05 06:13:24;;;;;;;3.40;1.70;;;8.50;99.90;;;;;;5045579;28;20231;-50
2022/01/05 06:15:52;;;;;;;2.27;1.70;;;8.50;99.90;;;;;;5037247;28;20478;-50
2022/01/05 06:18:20;;;;;;;2.40;1.40;;;8.50;99.90;;;;;;5045134;28;20471;-49
2022/01/05 06:20:49;;;;;;;3.37;1.67;;;8.50;99.90;;;;;;5042120;28;20499;-50
2022/01/05 06:23:18;;;;;;;2.57;1.20;;;8.50;99.90;;;;;;5046268;28;20798;-51
2022/01/05 06:25:46;;;;;;;3.97;1.47;;;8.40;99.90;;;;;;5045242;28;20469;-49
2022/01/05 06:28:14;;;;;;;4.53;1.80;;;8.50;99.90;;;;;;5043064;28;20467;-51
2022/01/05 06:30:42;;;;;;;3.13;2.03;;;8.50;99.90;;;;;;5045321;28;20460;-50
2022/01/05 06:33:11;;;;;;;3.00;1.77;;;8.40;99.90;;;;;;5060138;28;20482;-49
2022/01/05 06:35:39;;;;;;;6.03;2.93;;;8.40;99.90;;;;;;5044557;28;20463;-51
2022/01/05 06:38:08;;;;;;;2.45;1.48;;;8.40;99.90;;;;;;5026807;28;20627;-49
2022/01/05 06:40:37;;;;;;;1.60;1.50;;;8.40;99.90;;;;;;5039978;28;20227;-50
2022/01/05 06:43:05;;;;;;;2.43;1.80;;;8.40;99.90;;;;;;5045017;28;20435;-51
2022/01/05 06:45:33;;;;;;;1.50;1.40;;;8.40;99.90;;;;;;5044573;28;20465;-49
2022/01/05 06:48:02;;;;;;;1.67;1.57;;;8.40;99.90;;;;;;5044703;28;20223;-51
2022/01/05 06:50:30;;;;;;;2.30;1.53;;;8.40;99.90;;;;;;5045075;28;20965;-50
2022/01/05 06:52:58;;;;;;;4.03;1.90;;;8.40;99.90;;;;;;5044720;28;20504;-49
2022/01/05 06:55:28;;;;;;;2.42;1.92;;;8.40;99.90;;;;;;5026412;28;20853;-51
2022/01/05 06:57:56;;;;;;;3.90;1.93;;;8.40;99.90;;;;;;5042127;28;20222;-51
2022/01/05 07:00:26;;;;;;;3.37;2.23;;;8.40;99.90;;;;;;5033908;28;20970;-48
2022/01/05 07:02:54;;;;;;;2.73;1.87;;;8.40;99.90;;;;;;5026314;28;20426;-48
2022/01/05 07:05:22;;;;;;;5.60;2.30;;;8.40;99.90;;;;;;5040139;28;20453;-49
2022/01/05 07:07:50;;;;;;;2.90;1.60;;;8.30;99.90;;;;;;5044353;28;20452;-50
2022/01/05 07:10:19;;;;;;;2.13;1.45;;;8.30;99.90;;;;;;5044540;28;20281;-50
2022/01/05 07:12:49;;;;;;;4.85;1.63;;;8.30;99.90;;;;;;5044984;28;20571;-50
2022/01/05 07:15:17;;;;;;;5.53;1.90;;;8.30;99.90;;;;;;5041735;28;20239;-49
2022/01/05 07:17:46;;;;;;;4.63;1.50;;;8.30;99.90;;;;;;5044767;28;20220;-51
2022/01/05 07:20:17;;;;;;;2.50;2.03;;;8.40;99.90;;;;;;5043104;28;20613;-48
2022/01/05 07:22:46;;;;;;;7.68;2.67;;;8.30;99.90;;;;;;5044630;28;20263;-50
2022/01/05 07:25:14;;;;;;;4.97;2.20;;;8.30;99.90;;;;;;5042917;28;20539;-51
2022/01/05 07:27:42;;;;;;;3.42;1.98;;;8.30;99.90;;;;;;5044917;28;20300;-49
2022/01/05 07:30:13;;;;;;;2.90;1.87;;;8.30;99.90;;;;;;5043870;28;20219;-51
2022/01/05 07:32:42;;;;;;;4.10;2.30;;;8.30;99.90;;;;;;5044332;28;20936;-49
2022/01/05 07:35:10;;;;;;;4.80;2.63;;;8.30;99.90;;;;;;5042866;28;20528;-49
2022/01/05 07:37:39;;;;;;;5.00;2.10;;;8.30;99.90;;;;;;5044047;28;20710;-49
2022/01/05 07:40:09;;;;;;;2.78;1.95;;;8.30;99.90;;;;;;5043793;28;20443;-50
2022/01/05 07:42:47;;;;;;;3.30;1.80;;;;;;;;;;5027652;28;20736;-49
2022/01/05 07:45:20;;;;;;;3.22;2.00;;;8.30;99.90;;;;;;5018545;28;20298;-49
2022/01/05 07:48:08;;;;;;;6.13;2.30;;;8.20;99.90;;;;;;5026610;28;20216;-49
2022/01/05 07:50:36;;;;;;;2.70;1.83;;;8.20;99.90;;;;;;5032684;28;20481;-50
2022/01/05 07:53:11;;;;;;;2.75;1.70;;;8.20;99.90;;;;;;5044038;28;20443;-50
2022/01/05 07:55:43;;;;;;;5.53;2.10;;;8.20;99.90;;;;;;5033948;28;20230;-51
2022/01/05 07:58:19;;;;;;;4.40;2.33;;;8.20;99.90;;;;;;5029297;28;20207;-51
2022/01/05 08:00:50;;;;;;;3.90;1.80;;;8.20;99.90;;;;;;5043644;28;20486;-48
2022/01/05 08:03:21;;;;;;;5.40;2.40;;;8.20;99.90;;;;;;5030503;28;20194;-48
2022/01/05 08:06:10;;;;;;;4.05;2.15;;;8.20;99.90;;;;;;5033700;28;20211;-51
2022/01/05 08:08:40;;;;;;;2.67;1.95;;;8.20;99.90;;;;;;5025800;28;20223;-48
2022/01/05 08:11:11;;;;;;;6.47;2.40;;;8.20;99.90;;;;;;5042226;28;20226;-50
2022/01/05 08:14:14;;;;;;;6.18;3.20;;;8.20;99.90;;;;;;5042735;28;20216;-50
2022/01/05 08:17:07;;;;;;;3.53;2.63;;;8.10;99.90;;;;;;5034296;28;20241;-49
2022/01/05 08:19:36;;;;;;;8.45;3.40;;;8.10;99.90;;;;;;5045093;28;20210;-49
2022/01/05 08:22:22;;;;;;;6.63;2.85;;;8.10;99.90;;;;;;5014327;28;20238;-50
2022/01/05 08:25:17;;;;;;;7.22;3.15;;;8.10;99.90;;;;;;5000582;28;20339;-50
2022/01/05 08:27:47;;;;;;;4.43;2.83;;;8.10;99.90;;;;;;5004803;28;20284;-50
2022/01/05 08:30:22;;;;;;;9.75;3.42;;;8.10;99.90;;;;;;5004266;28;20685;-50
2022/01/05 08:32:54;;;;;;;4.90;3.50;;;8.10;99.90;;;;;;5004541;28;20193;-49
2022/01/05 08:35:26;;;;;;;8.07;3.60;;;8.10;99.90;;;;;;5003109;28;20221;-49
2022/01/05 08:37:59;;;;;;;8.30;3.20;;;8.10;99.90;;;;;;5004671;28;20219;-48
2022/01/05 08:40:29;;;;;;;4.20;2.70;;;8.10;99.90;;;;;;5004249;28;20223;-49
2022/01/05 08:43:03;;;;;;;2.60;2.28;;;8.10;99.90;;;;;;5012615;28;20674;-50
2022/01/05 08:45:33;;;;;;;4.53;2.83;;;8.10;99.90;;;;;;5007013;28;20226;-48
2022/01/05 08:48:07;;;;;;;4.88;3.05;;;8.10;99.90;;;;;;5024332;28;21014;-48
2022/01/05 08:50:53;;;;;;;5.15;3.08;;;8.10;99.90;;;;;;5024240;28;20234;-50
2022/01/05 08:53:22;;;;;;;7.80;3.10;;;8.10;99.90;;;;;;5041839;28;20203;-51
2022/01/05 08:55:51;;;;;;;5.20;3.05;;;8.10;99.90;;;;;;5042290;28;20233;-50
2022/01/05 08:58:21;;;;;;;6.68;2.58;;;8.10;99.90;;;;;;5024843;28;20234;-49
2022/01/05 09:00:50;;;;;;;5.40;3.05;;;8.10;99.90;;;;;;5042865;28;20747;-49
2022/01/05 09:03:20;;;;;;;6.28;2.60;;;8.10;99.90;;;;;;5040954;28;20204;-50
2022/01/05 09:05:53;;;;;;;4.57;3.45;;;8.10;99.90;;;;;;5040895;28;20210;-49
2022/01/05 09:08:23;;;;;;;5.47;2.85;;;8.10;99.90;;;;;;5029198;28;20212;-49
2022/01/05 09:11:08;;;;;;;6.10;2.95;;;8.10;99.90;;;;;;5043076;28;20225;-49
2022/01/05 09:13:36;;;;;;;4.10;2.55;;;8.10;99.90;;;;;;5045531;28;20189;-49
2022/01/05 09:16:22;;;;;;;4.65;2.95;;;8.00;99.90;;;;;;5033101;28;20320;-50
2022/01/05 09:18:56;;;;;;;4.45;3.10;;;8.00;99.90;;;;;;5018925;28;20608;-50
2022/01/05 09:21:31;;;;;;;4.72;2.72;;;8.00;99.90;;;;;;5042614;28;20220;-51
2022/01/05 09:23:59;;;;;;;5.00;3.20;;;8.00;99.90;;;;;;5042663;28;20187;-49
2022/01/05 09:26:32;;;;;;;6.82;3.30;;;8.00;99.90;;;;;;5041625;28;20224;-51
2022/01/05 09:29:01;;;;;;;3.25;2.83;;;8.00;99.90;;;;;;5036665;28;20264;-49
2022/01/05 09:31:31;;;;;;;4.93;3.05;;;8.00;99.90;;;;;;5022219;28;20312;-51
2022/01/05 09:34:02;;;;;;;3.40;2.65;;;8.00;99.90;;;;;;5034056;28;20191;-48
2022/01/05 09:36:35;;;;;;;5.50;3.10;;;8.00;99.90;;;;;;5027398;28;20228;-50
2022/01/05 09:41:57;;;;;;;4.97;3.33;;;8.00;99.90;;;;;;5023181;28;20236;-49
2022/01/05 09:44:28;;;;;;;9.45;2.83;;;8.00;99.90;;;;;;5021762;28;20196;-51
2022/01/05 09:47:20;;;;;;;2.78;2.47;;;8.00;99.90;;;;;;5022859;28;20234;-48
2022/01/05 09:49:54;;;;;;;3.63;2.22;;;8.00;99.90;;;;;;5026620;28;20194;-50
2022/01/05 09:52:24;;;;;;;4.10;3.08;;;7.90;99.90;;;;;;5025547;28;20245;-50
2022/01/05 09:54:55;;;;;;;2.47;2.20;;;8.00;99.90;;;;;;5026044;28;20223;-48
2022/01/05 09:57:24;;;;;;;5.72;2.65;;;7.90;99.90;;;;;;5025855;28;20220;-51
2022/01/05 09:59:53;;;;;;;3.47;2.80;;;7.90;99.90;;;;;;5024528;28;20181;-50
2022/01/05 10:02:21;;;;;;;3.88;2.80;;;7.90;99.90;;;;;;5005018;28;20263;-49
2022/01/05 10:04:51;;;;;;;6.15;3.55;;;7.90;99.90;;;;;;5005173;28;20272;-50
2022/01/05 10:07:22;;;;;;;5.93;3.25;;;7.90;99.90;;;;;;4994296;28;20760;-50
2022/01/05 10:09:50;;;;;;;4.13;2.45;;;7.90;99.90;;;;;;5005646;28;20478;-49
2022/01/05 10:12:19;;;;;;;4.47;2.60;;;7.90;99.90;;;;;;5004767;28;20322;-49
2022/01/05 10:14:49;;;;;;;5.60;2.63;;;7.90;99.90;;;;;;5005356;28;20466;-49
2022/01/05 10:17:23;;;;;;;4.88;2.47;;;7.90;99.90;;;;;;5004682;28;20227;-50
2022/01/05 10:19:58;;;;;;;3.90;2.55;;;7.90;99.90;;;;;;5005507;28;20207;-49
2022/01/05 10:22:35;;;;;;;3.67;2.45;;;7.90;99.90;;;;;;5011251;28;20230;-49
2022/01/05 10:25:09;;;;;;;3.65;3.15;;;7.90;99.90;;;;;;5022825;28;20209;-50
2022/01/05 10:27:38;;;;;;;2.75;2.40;;;7.90;99.90;;;;;;5025254;28;20492;-49
2022/01/05 10:30:11;;;;;;;5.13;2.70;;;7.90;99.90;;;;;;5024276;28;20330;-51
2022/01/05 10:32:43;;;;;;;7.10;2.90;;;7.90;99.90;;;;;;5025101;28;20203;-49
2022/01/05 10:35:16;;;;;;;6.15;2.47;;;7.90;99.90;;;;;;5024445;28;20232;-49
2022/01/05 10:37:57;;;;;;;4.80;2.30;;;7.90;99.90;;;;;;5024941;28;20223;-49
2022/01/05 10:40:26;;;;;;;4.65;2.70;;;7.90;99.90;;;;;;5025171;28;20241;-50
2022/01/05 10:42:56;;;;;;;5.15;2.10;;;7.90;99.90;;;;;;5025652;28;20201;-49
2022/01/05 10:45:39;;;;;;;5.63;2.45;;;7.90;99.90;;;;;;5024061;28;20238;-51
2022/01/05 10:48:10;;;;;;;8.18;1.98;;;7.90;99.90;;;;;;5024679;28;20213;-50
2022/01/05 10:50:41;;;;;;;6.55;2.72;;;7.90;99.90;;;;;;5024872;28;20322;-49
2022/01/05 10:53:09;;;;;;;2.90;2.55;;;7.90;99.90;;;;;;5024534;28;20573;-49
2022/01/05 10:55:42;;;;;;;4.15;2.83;;;7.90;99.90;;;;;;5024331;28;20218;-51
2022/01/05 10:58:14;;;;;;;4.57;2.72;;;7.90;99.90;;;;;;5023598;28;20211;-49
2022/01/05 11:00:46;;;;;;;4.00;2.33;;;7.90;99.90;;;;;;5024850;28;20230;-49
2022/01/05 11:03:26;;;;;;;5.13;3.10;;;7.90;99.90;;;;;;5024264;28;20206;-51
2022/01/05 11:06:10;;;;;;;7.05;2.72;;;7.90;99.90;;;;;;5023550;28;20228;-50
2022/01/05 11:08:52;;;;;;;3.10;2.78;;;7.90;99.90;;;;;;5017236;28;20222;-48
2022/01/05 11:11:39;;;;;;;8.18;2.88;;;7.90;99.90;;;;;;5017487;28;20243;-50
2022/01/05 11:14:10;;;;;;;4.15;2.10;;;7.90;99.90;;;;;;5024709;28;20263;-50
2022/01/05 11:16:40;;;;;;;6.22;3.60;;;7.90;99.90;;;;;;5024996;28;20508;-49
2022/01/05 11:19:18;;;;;;;7.15;2.65;;;7.90;99.90;;;;;;5024203;28;20725;-48
2022/01/05 11:22:03;;;;;;;3.70;2.75;;;7.80;99.90;;;;;;5023922;28;20310;-50
2022/01/05 11:24:34;;;;;;;5.70;2.70;;;7.80;99.90;;;;;;5024090;28;20193;-47
2022/01/05 11:27:04;;;;;;;8.23;2.90;;;7.80;99.90;;;;;;5009973;28;20295;-51
2022/01/05 11:29:36;;;;;;;8.45;2.95;;;7.80;99.90;;;;;;5011060;28;20563;-49
2022/01/05 11:32:09;;;;;;;7.43;3.10;;;7.80;99.90;;;;;;5021718;28;20727;-50
2022/01/05 11:34:38;;;;;;;8.85;2.97;;;7.90;99.90;;;;;;5025256;28;20201;-51
2022/01/05 11:37:09;;;;;;;6.05;3.17;;;7.80;99.90;;;;;;5024435;28;20282;-48
2022/01/05 11:39:44;;;;;;;3.13;2.75;;;7.90;99.90;;;;;;5024475;28;20211;-48
2022/01/05 11:42:19;;;;;;;12.88;3.40;;;7.90;99.90;;;;;;5006553;28;20211;-50
2022/01/05 11:44:49;;;;;;;3.45;2.70;;;7.80;99.90;;;;;;5021186;28;20201;-50
2022/01/05 11:47:23;;;;;;;5.50;2.97;;;7.80;99.90;;;;;;5018584;28;20618;-51
2022/01/05 11:49:53;;;;;;;5.28;3.42;;;7.90;99.90;;;;;;5024017;28;20236;-49
2022/01/05 11:52:55;;;;;;;6.45;2.60;;;7.80;99.90;;;;;;5020907;28;20226;-48
2022/01/05 11:55:25;;;;;;;5.68;3.05;;;7.80;99.90;;;;;;5018944;28;20225;-50
2022/01/05 11:58:16;;;;;;;3.80;3.50;;;7.80;99.90;;;;;;5024315;28;20726;-50
2022/01/05 12:00:47;;;;;;;6.50;3.20;;;7.80;99.90;;;;;;5021977;28;20223;-48
2022/01/05 12:03:47;;;;;;;5.53;3.08;;;7.80;99.90;;;;;;5024020;28;20212;-50
2022/01/05 12:06:17;;;;;;;7.82;3.17;;;7.80;99.90;;;;;;5022833;28;20242;-48
2022/01/05 12:08:48;;;;;;;4.28;2.30;;;7.80;99.90;;;;;;5023916;28;20205;-48
2022/01/05 12:11:38;;;;;;;5.53;2.90;;;7.80;99.90;;;;;;5020596;28;20240;-51
2022/01/05 12:14:29;;;;;;;5.55;3.00;;;7.80;99.90;;;;;;4997723;28;20186;-50
2022/01/05 12:17:16;;;;;;;8.52;3.10;;;7.80;99.90;;;;;;5021252;28;20219;-51
2022/01/05 12:20:21;;;;;;;7.22;2.70;;;7.80;99.90;;;;;;5024306;28;20257;-50
2022/01/05 12:23:19;;;;;;;7.97;3.80;;;7.80;99.90;;;;;;5004372;28;20214;-50
2022/01/05 12:26:17;;;;;;;5.47;3.05;;;7.80;99.90;;;;;;4985676;28;20305;-47
2022/01/05 12:28:57;;;;;;;5.00;2.95;;;7.80;99.90;;;;;;5001962;28;20410;-50
2022/01/05 12:32:00;;;;;;;4.18;2.78;;;7.80;99.90;;;;;;4999722;28;20223;-50
2022/01/05 12:34:58;;;;;;;4.95;3.05;;;7.80;99.90;;;;;;5003190;28;20195;-48
2022/01/05 12:37:47;;;;;;;8.75;2.58;;;7.80;99.90;;;;;;5005236;28;20272;-49
2022/01/05 12:40:26;;;;;;;3.47;2.83;;;7.80;99.90;;;;;;5001478;28;20189;-49
2022/01/05 12:43:34;;;;;;;9.75;3.78;;;7.80;99.90;;;;;;5004677;28;20204;-47
2022/01/05 12:46:11;;;;;;;4.13;3.10;;;7.80;99.90;;;;;;4996579;28;20824;-50
2022/01/05 12:49:01;;;;;;;7.93;3.60;;;7.80;99.90;;;;;;5002081;28;20479;-49
2022/01/05 12:51:34;;;;;;;8.93;2.85;;;7.80;99.90;;;;;;5002201;28;20219;-51
2022/01/05 12:54:07;;;;;;;5.47;2.92;;;7.80;99.90;;;;;;5002444;28;20268;-50
2022/01/05 12:56:40;;;;;;;5.03;2.75;;;7.80;99.90;;;;;;4998976;28;20756;-48
2022/01/05 12:59:11;;;;;;;5.30;3.28;;;7.80;99.90;;;;;;5002937;28;20224;-51
2022/01/05 13:01:41;;;;;;;4.72;2.83;;;7.80;99.90;;;;;;5001699;28;20230;-50
2022/01/05 13:04:13;;;;;;;2.92;2.63;;;7.80;99.90;;;;;;5002784;28;20622;-49
2022/01/05 13:06:43;;;;;;;3.70;2.92;;;7.80;99.90;;;;;;5002691;28;20295;-49
2022/01/05 13:09:23;;;;;;;4.57;3.00;;;7.80;99.90;;;;;;4998550;28;20206;-50
2022/01/05 13:11:55;;;;;;;7.70;3.00;;;7.80;99.90;;;;;;5001158;28;20283;-49
2022/01/05 13:14:26;;;;;;;7.65;3.20;;;7.80;99.90;;;;;;5035135;28;20265;-49
2022/01/05 13:16:57;;;;;;;5.60;2.90;;;7.80;99.90;;;;;;5001922;28;20707;-49
2022/01/05 13:19:42;;;;;;;3.95;2.78;;;7.80;99.90;;;;;;5003555;28;20282;-48
2022/01/05 13:22:16;;;;;;;5.13;3.05;;;7.80;99.90;;;;;;5003224;28;20267;-51
2022/01/05 13:24:58;;;;;;;6.90;2.97;;;7.80;99.90;;;;;;5004569;28;20626;-48